Time;durP1;ratioP1;P1;durP2;ratioP2;P2;SDS_P1;SDS_P2;PMS_P1;PMS_P2;Temp;Humidity;BMP_temperature;BMP_pressure;BME280_temperature;BME280_humidity;BME280_pressure;Samples;Min_cycle;Max_cycle;Signal;HPM_P1;HPM_P2
2022/04/24 04:01:00;;;;;;;19.70;17.40;;;11.40;99.90;;;;;;5679083;23;20506;-66
2022/04/24 04:03:27;;;;;;;19.03;17.13;;;11.40;99.90;;;;;;4974706;28;20457;-66
2022/04/24 04:05:54;;;;;;;19.77;17.77;;;11.40;99.90;;;;;;4974602;28;20489;-66
2022/04/24 04:08:20;;;;;;;20.40;18.37;;;11.30;99.90;;;;;;4976950;28;20921;-66
2022/04/24 04:10:47;;;;;;;20.67;18.67;;;11.30;99.90;;;;;;4977910;28;20974;-66
2022/04/24 04:13:14;;;;;;;18.77;16.97;;;11.30;99.90;;;;;;4978076;28;20512;-66
2022/04/24 04:15:41;;;;;;;20.50;17.87;;;11.30;99.90;;;;;;4977851;28;20953;-66
2022/04/24 04:18:09;;;;;;;20.10;18.10;;;11.30;99.90;;;;;;4979756;28;20451;-66
2022/04/24 04:20:36;;;;;;;21.10;18.83;;;11.20;99.90;;;;;;4990569;28;20497;-66
2022/04/24 04:23:03;;;;;;;19.77;17.77;;;11.20;99.90;;;;;;4978635;28;21001;-66
2022/04/24 04:25:30;;;;;;;20.07;18.10;;;11.20;99.90;;;;;;4977641;28;20545;-66
2022/04/24 04:27:57;;;;;;;20.70;18.40;;;11.20;99.90;;;;;;4977471;28;20634;-66
2022/04/24 04:30:24;;;;;;;21.50;19.40;;;11.30;99.90;;;;;;4977286;28;20451;-66
2022/04/24 04:32:51;;;;;;;21.70;19.50;;;11.30;99.90;;;;;;4977619;28;20467;-66
2022/04/24 04:35:22;;;;;;;25.23;20.00;;;11.30;99.90;;;;;;4977622;28;20459;-66
2022/04/24 04:37:49;;;;;;;21.03;18.63;;;11.30;99.90;;;;;;4977569;28;20454;-66
2022/04/24 04:40:18;;;;;;;21.73;19.53;;;11.20;99.90;;;;;;4977350;28;20575;-66
2022/04/24 04:42:45;;;;;;;21.70;19.50;;;11.20;99.90;;;;;;4977477;28;20494;-66
2022/04/24 04:45:12;;;;;;;22.30;20.00;;;11.20;99.90;;;;;;4977103;28;21073;-66
2022/04/24 04:47:39;;;;;;;23.97;21.30;;;11.10;99.90;;;;;;4977340;28;20466;-66
2022/04/24 04:50:06;;;;;;;24.43;21.73;;;10.90;99.90;;;;;;4977276;28;20455;-66
2022/04/24 04:52:34;;;;;;;28.00;23.90;;;10.80;99.90;;;;;;4976881;28;20471;-66
2022/04/24 04:55:01;;;;;;;29.80;25.20;;;10.60;99.90;;;;;;4977271;28;20466;-68
2022/04/24 04:57:28;;;;;;;29.80;24.67;;;10.50;99.90;;;;;;4977248;28;20472;-66
2022/04/24 04:59:55;;;;;;;32.07;26.10;;;10.40;99.90;;;;;;4976817;28;20482;-65
2022/04/24 05:02:21;;;;;;;24.57;18.63;;;10.40;99.90;;;;;;4976743;28;20509;-65
2022/04/24 05:04:48;;;;;;;15.77;12.90;;;10.20;99.90;;;;;;4977052;28;20455;-65
2022/04/24 05:07:15;;;;;;;11.60;9.93;;;9.90;99.90;;;;;;4976709;28;20458;-65
2022/04/24 05:09:43;;;;;;;6.33;5.50;;;9.70;99.90;;;;;;4978009;28;20859;-65
2022/04/24 05:12:10;;;;;;;6.63;6.00;;;9.50;99.90;;;;;;4978266;28;20483;-65
2022/04/24 05:14:37;;;;;;;5.67;5.17;;;9.30;99.90;;;;;;4977654;28;21016;-65
2022/04/24 05:17:04;;;;;;;3.90;3.60;;;9.20;99.90;;;;;;4977155;28;20462;-65
2022/04/24 05:19:31;;;;;;;2.30;2.10;;;9.20;99.90;;;;;;4975918;28;20875;-65
2022/04/24 05:21:57;;;;;;;1.60;1.50;;;9.10;99.90;;;;;;4976785;28;20879;-65
2022/04/24 05:24:24;;;;;;;1.00;1.00;;;9.00;99.90;;;;;;4976738;28;20462;-65
2022/04/24 05:26:52;;;;;;;1.37;1.10;;;8.90;99.90;;;;;;4976767;28;20462;-65
2022/04/24 05:29:19;;;;;;;0.37;0.37;;;8.80;99.90;;;;;;4976858;28;20463;-65
2022/04/24 05:31:45;;;;;;;1.07;0.67;;;8.70;99.90;;;;;;4976470;28;20475;-65
2022/04/24 05:34:12;;;;;;;1.03;0.50;;;8.60;99.90;;;;;;4976217;28;20961;-65
2022/04/24 05:36:39;;;;;;;0.50;0.50;;;8.60;99.90;;;;;;4976443;28;20829;-65
2022/04/24 05:39:06;;;;;;;1.07;0.60;;;8.60;99.90;;;;;;4976290;28;20459;-65
2022/04/24 05:41:32;;;;;;;0.97;0.40;;;8.50;99.90;;;;;;4976234;28;20486;-65
2022/04/24 05:44:00;;;;;;;0.47;0.47;;;8.50;99.90;;;;;;4976449;28;20459;-65
2022/04/24 05:46:27;;;;;;;0.87;0.40;;;8.50;99.90;;;;;;4976592;28;20459;-64
2022/04/24 05:48:55;;;;;;;1.87;0.50;;;8.40;99.90;;;;;;4976053;28;20949;-65
2022/04/24 05:51:22;;;;;;;0.87;0.50;;;8.40;99.90;;;;;;4976486;28;20471;-65
2022/04/24 05:53:48;;;;;;;1.57;0.60;;;8.30;99.90;;;;;;4976179;28;20459;-65
2022/04/24 05:56:15;;;;;;;1.27;0.63;;;8.20;99.90;;;;;;4976320;28;20447;-65
2022/04/24 05:58:42;;;;;;;1.27;0.53;;;8.30;99.90;;;;;;4975834;28;20949;-65
2022/04/24 06:01:10;;;;;;;0.40;0.40;;;8.20;99.90;;;;;;4975825;28;21032;-64
2022/04/24 06:03:38;;;;;;;0.87;0.40;;;8.20;99.90;;;;;;4976057;28;20820;-64
2022/04/24 06:06:05;;;;;;;0.80;0.60;;;8.20;99.90;;;;;;4976177;28;20810;-64
2022/04/24 06:08:32;;;;;;;0.50;0.30;;;8.10;99.90;;;;;;4975942;28;20455;-63
2022/04/24 06:10:58;;;;;;;0.40;0.40;;;8.10;99.90;;;;;;4975952;28;20475;-63
2022/04/24 06:13:26;;;;;;;0.90;0.30;;;8.10;99.90;;;;;;4975876;28;20459;-64
2022/04/24 06:15:55;;;;;;;0.30;0.30;;;8.10;99.90;;;;;;4975852;28;20510;-63
2022/04/24 06:18:23;;;;;;;0.20;0.20;;;8.10;99.90;;;;;;4975904;28;20455;-64
2022/04/24 06:20:51;;;;;;;0.30;0.30;;;8.10;99.90;;;;;;4975680;28;20486;-64
2022/04/24 06:23:17;;;;;;;1.80;0.40;;;8.00;99.90;;;;;;4975550;28;20458;-65
2022/04/24 06:25:44;;;;;;;0.57;0.30;;;8.00;99.90;;;;;;4976009;28;20459;-64
2022/04/24 06:28:11;;;;;;;0.83;0.50;;;8.00;99.90;;;;;;4975931;28;20826;-65
2022/04/24 06:30:40;;;;;;;0.40;0.40;;;8.00;99.90;;;;;;4975842;28;20811;-65
2022/04/24 06:33:08;;;;;;;1.27;0.40;;;8.00;99.90;;;;;;4975881;28;20490;-64
2022/04/24 06:35:37;;;;;;;0.50;0.50;;;8.00;99.90;;;;;;4975815;28;20454;-64
2022/04/24 06:38:04;;;;;;;0.30;0.30;;;8.00;99.90;;;;;;4975768;28;20462;-64
2022/04/24 06:40:31;;;;;;;1.23;0.30;;;8.10;99.90;;;;;;4975416;28;20494;-64
2022/04/24 06:43:00;;;;;;;0.30;0.30;;;8.10;99.90;;;;;;4975451;28;20466;-64
2022/04/24 06:45:29;;;;;;;0.40;0.40;;;8.10;99.90;;;;;;4975668;28;20462;-64
2022/04/24 06:47:56;;;;;;;0.47;0.40;;;8.20;99.90;;;;;;4975608;28;20455;-65
2022/04/24 06:50:24;;;;;;;1.47;0.40;;;8.20;99.90;;;;;;4975393;28;20961;-64
2022/04/24 06:53:00;;;;;;;0.30;0.30;;;8.20;99.90;;;;;;4975595;28;20462;-65
2022/04/24 06:55:28;;;;;;;0.53;0.43;;;8.20;99.90;;;;;;4975667;28;20579;-65
2022/04/24 06:57:55;;;;;;;1.80;0.37;;;8.20;99.90;;;;;;4980482;28;20461;-64
2022/04/24 07:00:23;;;;;;;0.30;0.30;;;8.30;99.90;;;;;;4979896;28;20482;-64
2022/04/24 07:02:50;;;;;;;0.53;0.30;;;8.30;99.90;;;;;;4975186;28;20440;-64
2022/04/24 07:05:17;;;;;;;0.33;0.33;;;8.40;99.90;;;;;;4975154;28;20458;-65
2022/04/24 07:07:44;;;;;;;0.40;0.20;;;8.40;99.90;;;;;;4974858;28;20950;-64
2022/04/24 07:10:12;;;;;;;0.30;0.30;;;8.40;99.90;;;;;;4975004;28;20635;-65
2022/04/24 07:12:46;;;;;;;0.87;0.47;;;8.40;99.90;;;;;;4974879;28;20864;-64
2022/04/24 07:15:13;;;;;;;0.50;0.50;;;8.50;99.90;;;;;;4974908;28;20458;-64
2022/04/24 07:17:41;;;;;;;0.40;0.40;;;8.50;99.90;;;;;;4974957;28;20455;-64
2022/04/24 07:20:09;;;;;;;0.40;0.27;;;8.50;99.90;;;;;;4978400;28;20517;-64
2022/04/24 07:22:46;;;;;;;0.87;0.53;;;8.50;99.90;;;;;;4980763;28;21004;-65
2022/04/24 07:25:15;;;;;;;0.30;0.30;;;8.50;99.90;;;;;;4976049;28;20439;-64
2022/04/24 07:27:43;;;;;;;0.37;0.37;;;8.50;99.90;;;;;;4976558;28;20443;-66
2022/04/24 07:30:13;;;;;;;0.40;0.40;;;8.50;99.90;;;;;;4975302;28;20799;-64
2022/04/24 07:32:44;;;;;;;0.40;0.20;;;8.50;99.90;;;;;;4975209;28;20447;-64
2022/04/24 07:35:12;;;;;;;0.77;0.40;;;8.60;99.90;;;;;;4974892;28;20450;-64
2022/04/24 07:37:39;;;;;;;0.60;0.30;;;8.60;99.90;;;;;;4974685;28;20459;-65
2022/04/24 07:40:07;;;;;;;0.30;0.30;;;8.60;99.90;;;;;;4974737;28;20458;-65
2022/04/24 07:42:46;;;;;;;2.20;0.53;;;8.60;99.90;;;;;;4975101;28;20478;-65
2022/04/24 07:45:18;;;;;;;0.50;0.40;;;8.60;99.90;;;;;;4978679;28;20459;-65
2022/04/24 07:47:46;;;;;;;0.50;0.50;;;8.60;99.90;;;;;;4978635;28;20438;-65
2022/04/24 07:50:12;;;;;;;0.57;0.57;;;8.60;99.90;;;;;;4978466;28;20862;-65
2022/04/24 07:52:39;;;;;;;1.47;0.60;;;8.60;99.90;;;;;;4978237;28;20543;-65
2022/04/24 07:55:06;;;;;;;0.30;0.30;;;8.60;99.90;;;;;;4978445;28;20458;-65
2022/04/24 07:57:33;;;;;;;0.60;0.60;;;8.60;99.90;;;;;;4978678;28;20450;-65
2022/04/24 08:00:01;;;;;;;0.40;0.40;;;8.60;99.90;;;;;;4978349;28;20458;-65
2022/04/24 08:02:28;;;;;;;0.40;0.40;;;8.70;99.90;;;;;;4978043;28;20486;-65
2022/04/24 08:04:54;;;;;;;0.37;0.37;;;8.70;99.90;;;;;;4978398;28;20462;-64
2022/04/24 08:07:22;;;;;;;0.60;0.60;;;8.70;99.90;;;;;;4978034;28;20454;-65
2022/04/24 08:09:49;;;;;;;0.40;0.40;;;8.70;99.90;;;;;;4978189;28;20553;-65
2022/04/24 08:12:16;;;;;;;0.40;0.40;;;8.80;99.90;;;;;;4978167;28;20471;-66
2022/04/24 08:14:42;;;;;;;0.43;0.43;;;8.80;99.90;;;;;;4977854;28;20992;-64
2022/04/24 08:17:10;;;;;;;1.50;0.50;;;8.80;99.90;;;;;;4978400;28;20853;-65
2022/04/24 08:19:37;;;;;;;0.40;0.40;;;8.80;99.90;;;;;;4978100;28;20462;-65
2022/04/24 08:22:04;;;;;;;0.53;0.53;;;8.80;99.90;;;;;;4978087;28;20563;-66
2022/04/24 08:24:31;;;;;;;0.60;0.60;;;8.90;99.90;;;;;;4978309;28;20462;-66
2022/04/24 08:26:57;;;;;;;1.27;0.50;;;8.90;99.90;;;;;;4978422;28;20443;-66
2022/04/24 08:29:24;;;;;;;0.30;0.30;;;8.90;99.90;;;;;;4978324;28;20466;-67
2022/04/24 08:31:51;;;;;;;0.50;0.50;;;8.90;99.90;;;;;;4977827;28;20477;-66
2022/04/24 08:34:19;;;;;;;0.40;0.40;;;8.90;99.90;;;;;;4978070;28;20506;-69
2022/04/24 08:36:45;;;;;;;0.83;0.70;;;8.90;99.90;;;;;;4978148;28;20496;-66
2022/04/24 08:39:12;;;;;;;2.30;0.93;;;9.00;99.90;;;;;;4978134;28;20462;-65
2022/04/24 08:41:41;;;;;;;2.00;0.50;;;9.10;99.90;;;;;;4977962;28;20479;-67
2022/04/24 08:44:08;;;;;;;0.60;0.60;;;9.10;99.90;;;;;;4978288;28;20455;-67
2022/04/24 08:46:35;;;;;;;0.90;0.40;;;9.20;99.90;;;;;;4978116;28;20872;-66
2022/04/24 08:49:03;;;;;;;0.73;0.73;;;9.30;99.90;;;;;;4977964;28;20455;-67
2022/04/24 08:51:33;;;;;;;1.70;0.50;;;9.40;99.90;;;;;;4977729;28;21009;-66
2022/04/24 08:54:01;;;;;;;1.03;0.50;;;9.40;99.90;;;;;;4977578;28;20463;-66
2022/04/24 08:56:28;;;;;;;1.23;1.13;;;9.30;99.90;;;;;;4978544;28;20455;-67
2022/04/24 08:58:55;;;;;;;0.70;0.70;;;9.40;99.90;;;;;;4978673;28;20884;-67
2022/04/24 09:01:22;;;;;;;1.17;0.60;;;9.20;99.90;;;;;;4977672;28;20854;-67
2022/04/24 09:03:49;;;;;;;0.70;0.70;;;9.30;99.90;;;;;;4977809;28;20863;-67
2022/04/24 09:06:22;;;;;;;4.87;0.80;;;9.30;99.90;;;;;;4977673;28;20454;-68
2022/04/24 09:08:51;;;;;;;0.73;0.73;;;9.30;99.90;;;;;;4977875;28;20455;-68
2022/04/24 09:11:24;;;;;;;0.80;0.80;;;9.30;99.90;;;;;;4977438;28;20478;-67
2022/04/24 09:16:36;;;;;;;12.93;9.80;;;9.40;99.90;;;;;;4977630;28;20426;-68
2022/04/24 09:19:04;;;;;;;11.37;10.17;;;9.40;99.90;;;;;;4977497;28;20455;-67
2022/04/24 09:21:30;;;;;;;8.60;7.67;;;9.40;99.90;;;;;;4977447;28;20509;-68
2022/04/24 09:24:00;;;;;;;3.97;3.47;;;9.40;99.90;;;;;;4977649;28;20462;-68
2022/04/24 09:26:27;;;;;;;2.13;2.03;;;9.40;99.90;;;;;;4977291;28;20493;-69
2022/04/24 09:28:54;;;;;;;1.73;1.50;;;9.50;99.90;;;;;;4977280;28;20455;-68
2022/04/24 09:31:21;;;;;;;1.20;1.20;;;9.50;99.90;;;;;;4976944;28;20475;-68
2022/04/24 09:33:47;;;;;;;1.10;1.00;;;9.50;99.90;;;;;;4977228;28;20473;-67
2022/04/24 09:36:18;;;;;;;1.13;1.00;;;9.50;99.90;;;;;;4983781;28;20451;-67
2022/04/24 09:38:46;;;;;;;0.77;0.77;;;9.50;99.90;;;;;;4985725;28;20439;-68
2022/04/24 09:41:18;;;;;;;1.33;0.97;;;9.60;99.90;;;;;;4976682;28;20542;-67
2022/04/24 09:43:45;;;;;;;1.10;1.00;;;9.60;99.90;;;;;;4976862;28;20470;-67
2022/04/24 09:46:12;;;;;;;0.80;0.80;;;9.60;99.90;;;;;;4976714;28;20475;-67
2022/04/24 09:48:39;;;;;;;3.00;1.10;;;9.70;99.90;;;;;;4976437;28;20451;-67
2022/04/24 09:51:08;;;;;;;1.80;1.10;;;9.60;99.90;;;;;;4976359;28;20499;-66
2022/04/24 09:53:41;;;;;;;1.17;0.90;;;9.70;99.90;;;;;;4976432;28;20495;-66
2022/04/24 09:56:09;;;;;;;0.70;0.70;;;9.80;99.90;;;;;;4976498;28;20443;-66
2022/04/24 09:58:38;;;;;;;1.80;0.93;;;9.70;99.90;;;;;;4976260;28;20463;-66
2022/04/24 10:01:06;;;;;;;1.33;0.70;;;9.80;99.90;;;;;;4975866;28;20581;-66
2022/04/24 10:03:37;;;;;;;0.80;0.80;;;9.80;99.90;;;;;;4976269;28;20462;-66
2022/04/24 10:06:04;;;;;;;2.13;1.03;;;9.80;99.90;;;;;;4975757;28;20448;-67
2022/04/24 10:08:33;;;;;;;1.63;1.27;;;9.80;99.90;;;;;;4976281;28;20861;-66
2022/04/24 10:11:04;;;;;;;0.90;0.90;;;9.90;99.90;;;;;;4976360;28;20474;-64
2022/04/24 10:13:32;;;;;;;2.00;1.47;;;9.80;99.90;;;;;;4975936;28;20443;-62
2022/04/24 10:16:26;;;;;;;1.60;1.00;;;9.80;99.90;;;;;;4975697;28;20974;-66
2022/04/24 10:18:59;;;;;;;0.90;0.90;;;9.80;99.90;;;;;;4976060;28;20444;-65
2022/04/24 10:22:02;;;;;;;1.87;1.40;;;9.70;99.90;;;;;;4975913;28;20486;-68
2022/04/24 10:24:41;;;;;;;1.17;1.10;;;9.70;99.90;;;;;;4976183;28;20454;-67
2022/04/24 10:27:11;;;;;;;3.80;1.10;;;9.70;99.90;;;;;;4978116;28;20463;-65
2022/04/24 10:29:48;;;;;;;2.10;1.10;;;9.80;99.90;;;;;;4978371;28;20477;-66
2022/04/24 10:32:26;;;;;;;0.80;0.80;;;9.90;99.90;;;;;;4976931;28;20470;-66
2022/04/24 10:34:54;;;;;;;1.70;1.70;;;9.90;99.90;;;;;;4976208;28;20446;-67
2022/04/24 10:37:28;;;;;;;1.23;1.17;;;9.90;99.90;;;;;;4976089;28;20455;-74
2022/04/24 10:39:55;;;;;;;1.47;1.23;;;9.90;99.90;;;;;;4976172;28;20453;-68
2022/04/24 10:42:30;;;;;;;1.40;1.30;;;10.00;99.90;;;;;;4975532;28;20510;-65
2022/04/24 10:45:06;;;;;;;1.30;1.20;;;10.00;99.90;;;;;;4975410;28;20786;-69
2022/04/24 10:47:46;;;;;;;1.00;1.00;;;10.00;99.90;;;;;;4974559;28;20946;-67
2022/04/24 10:50:13;;;;;;;2.40;1.30;;;10.00;99.90;;;;;;4975275;28;20498;-65
2022/04/24 10:52:41;;;;;;;0.80;0.80;;;10.00;99.90;;;;;;4975756;28;20439;-66
2022/04/24 10:55:09;;;;;;;3.60;1.00;;;10.00;99.90;;;;;;4975533;28;20810;-66
2022/04/24 10:57:42;;;;;;;1.50;1.30;;;10.10;99.90;;;;;;4975702;28;20455;-67
2022/04/24 11:00:16;;;;;;;1.13;0.97;;;10.00;99.90;;;;;;4975821;28;20839;-66
2022/04/24 11:02:44;;;;;;;1.83;1.10;;;10.00;99.90;;;;;;4975488;28;20513;-65
2022/04/24 11:05:11;;;;;;;1.33;1.20;;;10.10;99.90;;;;;;4975365;28;20481;-65
2022/04/24 11:07:38;;;;;;;1.47;1.10;;;10.10;99.90;;;;;;4975479;28;20455;-66
2022/04/24 11:10:08;;;;;;;1.20;1.20;;;10.10;99.90;;;;;;4977107;28;20458;-66
2022/04/24 11:12:36;;;;;;;1.23;1.00;;;10.20;99.90;;;;;;4977520;28;20478;-65
2022/04/24 11:15:04;;;;;;;1.57;1.50;;;10.30;99.90;;;;;;4978188;28;20518;-65
2022/04/24 11:17:31;;;;;;;1.20;1.20;;;10.30;99.90;;;;;;4977226;28;20817;-65
2022/04/24 11:20:03;;;;;;;1.27;1.27;;;10.30;99.90;;;;;;4977097;28;20478;-65
2022/04/24 11:22:31;;;;;;;1.33;1.30;;;10.30;99.90;;;;;;4976153;28;20792;-65
2022/04/24 11:25:00;;;;;;;1.80;1.40;;;10.30;99.90;;;;;;4976193;28;20883;-65
2022/04/24 11:27:27;;;;;;;1.60;1.50;;;10.40;99.90;;;;;;4976947;28;20455;-65
2022/04/24 11:29:54;;;;;;;2.53;1.70;;;10.50;99.90;;;;;;4977052;28;20463;-66
2022/04/24 11:32:20;;;;;;;1.60;1.40;;;10.50;99.90;;;;;;4977193;28;20475;-66
2022/04/24 11:34:48;;;;;;;1.90;1.80;;;10.50;99.90;;;;;;4977702;28;20814;-67
2022/04/24 11:37:16;;;;;;;1.67;1.57;;;10.60;99.90;;;;;;4978802;28;20458;-65
2022/04/24 11:39:42;;;;;;;2.90;1.70;;;10.60;99.90;;;;;;4983517;28;20513;-65
2022/04/24 11:42:09;;;;;;;3.67;1.70;;;10.80;99.90;;;;;;4979658;28;20489;-65
2022/04/24 11:50:15;;;;;;;1.03;1.03;;;11.00;99.90;;;;;;4975432;28;20887;-65
2022/04/24 11:52:46;;;;;;;1.43;1.10;;;11.10;99.90;;;;;;4976254;28;20443;-65
2022/04/24 11:55:15;;;;;;;1.50;1.40;;;11.10;99.90;;;;;;4975742;28;20439;-65
2022/04/24 11:57:42;;;;;;;1.40;1.30;;;11.20;99.90;;;;;;4975511;28;20455;-65
2022/04/24 12:00:13;;;;;;;1.57;1.47;;;11.20;99.90;;;;;;4975540;28;20466;-65
2022/04/24 12:02:42;;;;;;;1.20;1.20;;;11.20;99.90;;;;;;4975414;28;20553;-66
2022/04/24 12:05:10;;;;;;;1.80;1.70;;;11.10;99.90;;;;;;4975432;28;20446;-65
2022/04/24 12:07:38;;;;;;;1.30;1.30;;;11.10;99.90;;;;;;4974910;28;20459;-65
2022/04/24 12:10:08;;;;;;;1.47;1.37;;;11.10;99.90;;;;;;4975180;28;20463;-65
2022/04/24 12:12:44;;;;;;;1.47;1.27;;;11.10;99.90;;;;;;4974527;28;20891;-65
2022/04/24 12:15:14;;;;;;;1.20;1.20;;;11.20;99.90;;;;;;4974603;28;20439;-65
2022/04/24 12:17:49;;;;;;;1.00;1.00;;;11.30;99.90;;;;;;4974566;28;20486;-65
2022/04/24 12:20:15;;;;;;;0.80;0.80;;;11.40;99.90;;;;;;4974208;28;20802;-64
2022/04/24 12:22:42;;;;;;;0.90;0.90;;;11.50;99.90;;;;;;4974342;28;20482;-66
2022/04/24 12:25:13;;;;;;;0.80;0.80;;;11.50;99.90;;;;;;4974421;28;20486;-65
2022/04/24 12:27:40;;;;;;;0.60;0.60;;;11.60;99.90;;;;;;4974497;28;20443;-66
2022/04/24 12:30:09;;;;;;;0.73;0.70;;;11.60;99.90;;;;;;4977073;28;20458;-65
2022/04/24 12:32:38;;;;;;;1.90;0.80;;;11.70;99.90;;;;;;4977897;28;20996;-65
2022/04/24 12:35:05;;;;;;;2.00;0.80;;;11.80;99.90;;;;;;4977757;28;20553;-66
2022/04/24 12:37:33;;;;;;;0.80;0.80;;;11.80;99.90;;;;;;4977793;28;20473;-65
2022/04/24 12:40:01;;;;;;;0.83;0.83;;;11.70;99.90;;;;;;4977799;28;20482;-66
2022/04/24 12:42:29;;;;;;;0.53;0.53;;;11.70;99.90;;;;;;4977623;28;20482;-65
2022/04/24 12:44:56;;;;;;;1.33;0.77;;;11.70;99.90;;;;;;4977460;28;20491;-66
2022/04/24 12:47:23;;;;;;;0.80;0.80;;;11.70;99.90;;;;;;4977524;28;20946;-65
2022/04/24 12:49:50;;;;;;;0.73;0.73;;;11.60;99.90;;;;;;4977487;28;20497;-66
2022/04/24 12:52:20;;;;;;;0.77;0.77;;;11.50;99.90;;;;;;4977429;28;20482;-64
2022/04/24 12:54:47;;;;;;;0.70;0.70;;;11.50;99.90;;;;;;4977286;28;20439;-64
2022/04/24 12:57:15;;;;;;;1.60;1.50;;;11.50;99.90;;;;;;4977508;28;20463;-65
2022/04/24 12:59:43;;;;;;;0.90;0.90;;;11.50;99.90;;;;;;4977276;28;20510;-65
2022/04/24 13:02:11;;;;;;;1.13;0.80;;;11.40;99.90;;;;;;4976931;28;20510;-65
2022/04/24 13:04:39;;;;;;;0.93;0.90;;;11.40;99.90;;;;;;4977294;28;20533;-65
2022/04/24 13:07:06;;;;;;;1.47;0.70;;;11.30;99.90;;;;;;4977340;28;20447;-65
2022/04/24 13:09:32;;;;;;;1.00;1.00;;;11.30;99.90;;;;;;4976899;28;20800;-66
2022/04/24 13:12:00;;;;;;;1.33;1.13;;;11.20;99.90;;;;;;4977053;28;20471;-65
2022/04/24 13:14:27;;;;;;;0.80;0.80;;;11.20;99.90;;;;;;4977535;28;20494;-66
2022/04/24 13:19:39;;;;;;;0.90;0.90;;;11.20;99.90;;;;;;4976952;28;20418;-65
2022/04/24 13:22:06;;;;;;;0.80;0.80;;;11.20;99.90;;;;;;4976939;28;20487;-65
2022/04/24 13:24:33;;;;;;;0.63;0.63;;;11.30;99.90;;;;;;4976925;28;20454;-66
2022/04/24 13:27:00;;;;;;;0.70;0.70;;;11.40;99.90;;;;;;4976903;28;20462;-66
2022/04/24 13:29:28;;;;;;;0.57;0.57;;;11.40;99.90;;;;;;4976828;28;20859;-66
2022/04/24 13:31:56;;;;;;;2.50;1.00;;;11.50;99.90;;;;;;4976405;28;20978;-66
2022/04/24 13:34:23;;;;;;;2.73;2.53;;;11.50;99.90;;;;;;4977116;28;20464;-66
2022/04/24 13:38:17;;;;;;;1.20;1.20;;;11.50;99.90;;;;;;4977129;28;20948;-66
2022/04/24 13:39:36;;;;;;;0.70;0.70;;;11.50;99.90;;;;;;4976108;28;20454;-66
2022/04/24 13:42:06;;;;;;;0.60;0.60;;;11.50;99.90;;;;;;4977025;28;20872;-65
2022/04/24 13:44:33;;;;;;;1.00;1.00;;;11.50;99.90;;;;;;4976566;28;20242;-66
2022/04/24 13:47:01;;;;;;;0.90;0.90;;;11.40;99.90;;;;;;4976583;28;20462;-65
2022/04/24 13:49:28;;;;;;;1.47;1.30;;;11.40;99.90;;;;;;4976714;28;20455;-65
2022/04/24 13:51:54;;;;;;;1.77;1.30;;;11.40;99.90;;;;;;4976040;28;20850;-65
2022/04/24 13:54:21;;;;;;;1.33;1.33;;;11.50;99.90;;;;;;4976359;28;20455;-65
2022/04/24 13:56:48;;;;;;;1.20;1.10;;;11.50;99.90;;;;;;4975914;28;20528;-66
2022/04/24 13:59:16;;;;;;;1.27;1.27;;;11.50;99.90;;;;;;4977017;28;20465;-67
2022/04/24 14:01:44;;;;;;;1.30;1.30;;;11.40;99.90;;;;;;4976218;28;20490;-65
2022/04/24 14:04:12;;;;;;;1.30;1.30;;;11.50;99.90;;;;;;4976308;28;20515;-65
2022/04/24 14:06:39;;;;;;;1.40;1.40;;;11.50;99.90;;;;;;4975848;28;20466;-65
2022/04/24 14:09:05;;;;;;;1.83;1.80;;;11.40;99.90;;;;;;4976405;28;20455;-65
2022/04/24 14:11:32;;;;;;;1.57;1.50;;;11.40;99.90;;;;;;4976056;28;20475;-65
2022/04/24 14:13:59;;;;;;;1.50;1.50;;;11.40;99.90;;;;;;4976086;28;20451;-66
2022/04/24 14:16:25;;;;;;;1.80;1.70;;;11.40;99.90;;;;;;4975881;28;20465;-65
2022/04/24 14:18:52;;;;;;;3.23;2.07;;;11.30;99.90;;;;;;4975500;28;20455;-65
2022/04/24 14:21:20;;;;;;;1.40;1.30;;;11.30;99.90;;;;;;4975805;28;20478;-65
2022/04/24 14:23:47;;;;;;;1.40;1.40;;;11.30;99.90;;;;;;4975747;28;20570;-65
2022/04/24 14:26:15;;;;;;;1.87;1.77;;;11.20;99.90;;;;;;4976475;28;20503;-65
2022/04/24 14:28:42;;;;;;;3.90;1.90;;;11.30;99.90;;;;;;4975918;28;20506;-66
2022/04/24 14:31:09;;;;;;;2.10;2.00;;;11.20;99.90;;;;;;4975737;28;20482;-66
2022/04/24 14:33:36;;;;;;;1.90;1.80;;;11.20;99.90;;;;;;4975642;28;20455;-66
2022/04/24 14:36:03;;;;;;;2.13;2.03;;;11.10;99.90;;;;;;4980241;28;20459;-66
2022/04/24 14:38:32;;;;;;;3.03;2.83;;;11.10;99.90;;;;;;4983894;28;20439;-66
2022/04/24 14:40:58;;;;;;;2.60;2.50;;;11.10;99.90;;;;;;4977394;28;20501;-65
2022/04/24 14:43:25;;;;;;;2.60;2.40;;;11.10;99.90;;;;;;4975978;28;20501;-65
2022/04/24 14:57:05;;;;;;;3.50;3.30;;;10.90;99.90;;;;;;4935067;29;20425;-65
2022/04/24 14:59:34;;;;;;;4.27;3.97;;;10.80;99.90;;;;;;4957444;28;20823;-65
2022/04/24 15:02:02;;;;;;;4.37;4.07;;;10.80;99.90;;;;;;4974787;28;20511;-66
2022/04/24 15:04:28;;;;;;;6.37;5.87;;;10.80;99.90;;;;;;4975000;28;20479;-66
2022/04/24 15:06:55;;;;;;;5.60;5.20;;;10.70;99.90;;;;;;4975101;28;20455;-66
2022/04/24 15:09:23;;;;;;;6.70;6.10;;;10.70;99.90;;;;;;4974974;28;20459;-67
2022/04/24 15:11:50;;;;;;;7.50;6.90;;;10.60;99.90;;;;;;4974935;28;20482;-67
2022/04/24 15:14:16;;;;;;;8.40;7.60;;;10.60;99.90;;;;;;4974958;28;20534;-67
2022/04/24 15:16:43;;;;;;;8.07;7.37;;;10.60;99.90;;;;;;4974828;28;20455;-65
2022/04/24 15:19:10;;;;;;;8.17;7.47;;;10.60;99.90;;;;;;4974981;28;20503;-65
2022/04/24 15:21:37;;;;;;;8.93;8.10;;;10.60;99.90;;;;;;4974872;28;20537;-65
2022/04/24 15:24:08;;;;;;;8.50;7.70;;;10.60;99.90;;;;;;4974728;28;20482;-64
2022/04/24 15:26:36;;;;;;;9.60;8.70;;;10.60;99.90;;;;;;4974857;28;20443;-64
2022/04/24 15:29:04;;;;;;;9.60;8.70;;;10.60;99.90;;;;;;4974769;28;20455;-65
2022/04/24 15:31:31;;;;;;;11.37;10.40;;;10.50;99.90;;;;;;4974851;28;20504;-64
2022/04/24 15:33:58;;;;;;;11.53;10.50;;;10.50;99.90;;;;;;4974860;28;20864;-64
2022/04/24 15:36:24;;;;;;;11.33;10.30;;;10.50;99.90;;;;;;4974887;28;20455;-64
2022/04/24 15:38:51;;;;;;;12.67;11.40;;;10.50;99.90;;;;;;4974682;28;20525;-65
2022/04/24 15:41:18;;;;;;;12.23;11.17;;;10.50;99.90;;;;;;4974391;28;20569;-64
2022/04/24 15:43:46;;;;;;;13.70;12.23;;;10.60;99.90;;;;;;4974657;28;20875;-65
2022/04/24 15:46:15;;;;;;;14.00;12.60;;;10.60;99.90;;;;;;4974450;28;20903;-65
2022/04/24 15:48:42;;;;;;;12.57;11.20;;;10.70;99.90;;;;;;4974731;28;20470;-65
2022/04/24 15:51:09;;;;;;;16.47;13.70;;;10.70;99.90;;;;;;4974372;28;20978;-65
2022/04/24 15:53:38;;;;;;;13.77;12.47;;;10.70;99.90;;;;;;4974721;28;20557;-65
2022/04/24 15:56:06;;;;;;;13.33;12.03;;;10.60;99.90;;;;;;4974813;28;20461;-64
2022/04/24 15:58:33;;;;;;;14.60;11.87;;;10.70;99.90;;;;;;4974649;28;20454;-65
2022/04/24 16:01:01;;;;;;;13.93;11.47;;;10.70;99.90;;;;;;4974437;28;20498;-64
2022/04/24 16:03:27;;;;;;;14.87;13.37;;;10.70;99.90;;;;;;4974980;28;20486;-64
2022/04/24 16:05:54;;;;;;;14.00;11.83;;;10.70;99.90;;;;;;4978305;28;20455;-65
2022/04/24 16:08:23;;;;;;;13.43;12.23;;;10.80;99.90;;;;;;4978289;28;20454;-65
2022/04/24 16:10:51;;;;;;;14.40;12.97;;;10.80;99.90;;;;;;4978290;28;20565;-64
2022/04/24 16:13:18;;;;;;;13.93;12.47;;;10.80;99.90;;;;;;4978051;28;20455;-64
2022/04/24 16:15:45;;;;;;;13.73;12.33;;;10.80;99.90;;;;;;4979210;28;20938;-64
2022/04/24 16:18:14;;;;;;;13.57;12.27;;;10.80;99.90;;;;;;4978915;28;20466;-64
2022/04/24 16:20:41;;;;;;;13.43;12.03;;;10.90;99.90;;;;;;4978642;28;20506;-64
2022/04/24 16:23:08;;;;;;;13.23;11.93;;;10.90;99.90;;;;;;4978454;28;20573;-64
2022/04/24 16:25:35;;;;;;;12.47;11.27;;;11.00;99.90;;;;;;4978183;28;20462;-64
2022/04/24 16:28:02;;;;;;;13.00;11.73;;;11.00;99.90;;;;;;4977985;28;20454;-64
2022/04/24 16:30:29;;;;;;;12.23;11.03;;;11.00;99.90;;;;;;4978043;28;20459;-64
2022/04/24 16:32:55;;;;;;;12.13;11.03;;;11.00;99.90;;;;;;4977807;28;20821;-64
2022/04/24 16:35:24;;;;;;;12.93;11.70;;;11.00;99.90;;;;;;4977694;28;20481;-64
2022/04/24 16:37:54;;;;;;;11.53;10.53;;;11.00;99.90;;;;;;4977766;28;20543;-64
2022/04/24 16:40:22;;;;;;;12.10;10.73;;;11.10;99.90;;;;;;4977629;28;20455;-64
2022/04/24 16:42:48;;;;;;;10.90;9.90;;;11.10;99.90;;;;;;4977593;28;20458;-64
2022/04/24 16:45:16;;;;;;;11.57;10.40;;;11.00;99.90;;;;;;4977572;28;20506;-64
2022/04/24 16:47:43;;;;;;;11.13;10.07;;;11.10;99.90;;;;;;4977395;28;20455;-64
2022/04/24 16:58:44;;;;;;;10.80;9.83;;;11.00;99.90;;;;;;4977578;28;20439;-64
2022/04/24 16:58:48;;;;;;;10.90;9.90;;;10.90;99.90;;;;;;4940079;28;20444;-65
2022/04/24 17:01:16;;;;;;;10.00;9.00;;;10.90;99.90;;;;;;4977166;28;20478;-65
2022/04/24 17:03:43;;;;;;;9.80;8.90;;;10.90;99.90;;;;;;4977615;28;20537;-64
2022/04/24 17:06:10;;;;;;;9.40;8.50;;;10.90;99.90;;;;;;4978163;28;20450;-64
2022/04/24 17:08:38;;;;;;;8.73;7.90;;;10.90;99.90;;;;;;4977798;28;20458;-64
2022/04/24 17:11:05;;;;;;;9.57;8.77;;;10.90;99.90;;;;;;4977518;28;20482;-64
2022/04/24 17:13:32;;;;;;;7.93;7.23;;;10.90;99.90;;;;;;4977677;28;20458;-64
2022/04/24 17:15:59;;;;;;;7.87;7.17;;;10.90;99.90;;;;;;4976657;28;21001;-64
2022/04/24 17:18:29;;;;;;;7.40;6.80;;;10.90;99.90;;;;;;4978734;28;20454;-64
2022/04/24 17:20:56;;;;;;;7.63;6.93;;;10.90;99.90;;;;;;4977929;28;20486;-64